createdAt,value
2022-08-17T00:02:26.424Z,23.77
2022-08-17T00:04:55.600Z,23.71
2022-08-17T00:07:23.289Z,23.60
2022-08-17T00:09:50.515Z,23.65
2022-08-17T00:12:42.845Z,23.66
2022-08-17T00:15:10.692Z,23.54
2022-08-17T00:17:38.167Z,23.55
2022-08-17T00:20:06.421Z,23.51
2022-08-17T00:22:36.483Z,23.41
2022-08-17T00:25:09.057Z,23.38
2022-08-17T00:27:36.947Z,23.35
2022-08-17T00:30:06.689Z,23.32
2022-08-17T00:33:14.542Z,23.30
2022-08-17T00:35:30.636Z,23.25
2022-08-17T00:37:57.909Z,23.23
2022-08-17T00:40:25.246Z,23.22
2022-08-17T00:42:53.518Z,23.21
2022-08-17T00:45:23.092Z,23.19
2022-08-17T00:47:50.346Z,23.18
2022-08-17T00:50:19.194Z,23.16
2022-08-17T00:52:56.051Z,22.93
2022-08-17T00:55:25.428Z,23.04
2022-08-17T00:57:58.599Z,23.05
2022-08-17T01:00:28.679Z,22.94
2022-08-17T01:03:10.018Z,22.96
2022-08-17T01:05:42.192Z,22.99
2022-08-17T01:08:13.459Z,22.91
2022-08-17T01:10:58.765Z,22.92
2022-08-17T01:13:42.577Z,22.88
2022-08-17T01:16:28.334Z,22.84
2022-08-17T01:19:01.030Z,22.80
2022-08-17T01:21:43.941Z,22.81
2022-08-17T01:24:11.175Z,22.74
2022-08-17T01:26:43.328Z,22.73
2022-08-17T01:29:12.660Z,22.71
2022-08-17T01:31:45.515Z,22.66
2022-08-17T01:34:15.859Z,22.58
2022-08-17T01:36:45.899Z,22.58
2022-08-17T01:39:30.515Z,22.63
2022-08-17T01:42:11.055Z,22.62
2022-08-17T01:44:41.272Z,22.52
2022-08-17T01:47:08.485Z,22.54
2022-08-17T01:49:35.765Z,22.51
2022-08-17T01:52:10.942Z,22.43
2022-08-17T01:54:41.441Z,22.37
2022-08-17T01:57:09.259Z,22.42
2022-08-17T01:59:37.060Z,22.41
2022-08-17T02:02:07.282Z,22.41
2022-08-17T02:04:35.175Z,22.41
2022-08-17T02:07:02.404Z,22.38
2022-08-17T02:09:31.491Z,22.39
2022-08-17T02:12:38.300Z,22.35
2022-08-17T02:14:48.031Z,22.34
2022-08-17T02:17:15.256Z,22.33
2022-08-17T02:19:42.667Z,22.30
2022-08-17T02:22:10.384Z,22.25
2022-08-17T02:24:59.635Z,22.21
2022-08-17T02:27:26.411Z,22.19
2022-08-17T02:29:53.763Z,22.18
2022-08-17T02:32:28.040Z,22.16
2022-08-17T02:34:57.466Z,22.13
2022-08-17T02:37:26.601Z,22.12
2022-08-17T02:39:54.618Z,22.06
2022-08-17T02:42:31.502Z,22.01
2022-08-17T02:45:00.646Z,22.00
2022-08-17T02:47:28.048Z,22.00
2022-08-17T02:49:56.141Z,21.98
2022-08-17T02:52:53.520Z,21.91
2022-08-17T02:55:17.383Z,21.89
2022-08-17T02:57:45.622Z,21.86
2022-08-17T03:00:18.876Z,21.84
2022-08-17T03:02:46.045Z,21.83
2022-08-17T03:05:15.763Z,21.86
2022-08-17T03:07:43.132Z,21.85
2022-08-17T03:10:11.693Z,21.83
2022-08-17T03:12:41.688Z,21.66
2022-08-17T03:15:12.873Z,21.61
2022-08-17T03:17:40.170Z,21.67
2022-08-17T03:20:08.554Z,21.66
2022-08-17T03:22:38.618Z,21.64
2022-08-17T03:25:10.743Z,21.58
2022-08-17T03:27:39.382Z,21.55
2022-08-17T03:30:10.709Z,21.50
2022-08-17T03:32:39.964Z,21.45
2022-08-17T03:35:08.781Z,21.37
2022-08-17T03:37:36.785Z,21.26
2022-08-17T03:40:07.575Z,21.26
2022-08-17T03:42:38.089Z,21.19
2022-08-17T03:45:38.491Z,21.18
2022-08-17T03:48:35.627Z,21.12
2022-08-17T03:51:21.642Z,21.05
2022-08-17T03:54:13.346Z,21.05
2022-08-17T03:56:45.104Z,21.01
2022-08-17T03:59:20.846Z,20.98
2022-08-17T04:01:53.364Z,20.98
2022-08-17T04:04:27.713Z,20.83
2022-08-17T04:06:55.715Z,20.88
2022-08-17T04:09:22.988Z,20.85
2022-08-17T04:11:50.221Z,20.81
2022-08-17T04:14:17.448Z,20.82
2022-08-17T04:16:44.708Z,20.76
2022-08-17T04:19:12.289Z,20.78
2022-08-17T04:21:39.960Z,20.79
2022-08-17T04:24:07.803Z,20.78
2022-08-17T04:26:52.226Z,20.83
2022-08-17T04:29:22.692Z,20.85
2022-08-17T04:31:50.273Z,20.72
2022-08-17T04:34:19.574Z,20.75
2022-08-17T04:36:50.098Z,20.66
2022-08-17T04:39:17.856Z,20.64
2022-08-17T04:42:03.385Z,20.68
2022-08-17T04:44:37.795Z,20.68
2022-08-17T04:47:07.155Z,20.71
2022-08-17T04:49:38.049Z,20.64
2022-08-17T04:52:05.336Z,20.66
2022-08-17T04:54:32.639Z,20.69
2022-08-17T04:56:59.901Z,20.71
2022-08-17T04:59:27.132Z,20.64
2022-08-17T05:01:54.728Z,20.64
2022-08-17T05:04:34.443Z,20.67
2022-08-17T05:07:04.574Z,20.68
2022-08-17T05:09:32.113Z,20.69
2022-08-17T05:12:02.651Z,20.74
2022-08-17T05:14:32.328Z,20.69
2022-08-17T05:17:02.037Z,20.68
2022-08-17T05:19:35.341Z,20.76
2022-08-17T05:22:06.179Z,20.87
2022-08-17T05:24:42.618Z,20.87
2022-08-17T05:27:19.162Z,21.57
2022-08-17T05:29:46.597Z,22.20
2022-08-17T05:32:39.221Z,22.60
2022-08-17T05:35:01.332Z,23.19
2022-08-17T05:37:28.755Z,23.68
2022-08-17T05:39:56.082Z,24.03
2022-08-17T05:42:24.107Z,24.26
2022-08-17T05:44:51.405Z,24.45
2022-08-17T05:47:18.651Z,24.28
2022-08-17T05:49:49.091Z,23.82
2022-08-17T05:52:30.172Z,23.48
2022-08-17T05:55:25.268Z,23.20
2022-08-17T05:57:59.869Z,23.02
2022-08-17T06:00:52.063Z,22.91
2022-08-17T06:03:28.279Z,22.78
2022-08-17T06:06:10.841Z,22.72
2022-08-17T06:08:40.718Z,22.63
2022-08-17T06:11:22.765Z,22.61
2022-08-17T06:14:18.317Z,22.65
2022-08-17T06:16:50.801Z,22.60
2022-08-17T06:19:23.827Z,22.61
2022-08-17T06:21:54.215Z,22.67
2022-08-17T06:24:24.296Z,22.70
2022-08-17T06:26:52.739Z,22.78
2022-08-17T06:29:44.017Z,22.80
2022-08-17T06:32:12.851Z,22.81
2022-08-17T06:34:42.184Z,22.87
2022-08-17T06:37:31.195Z,22.93
2022-08-17T06:40:10.910Z,23.01
2022-08-17T06:43:00.849Z,23.06
2022-08-17T06:45:41.904Z,23.09
2022-08-17T06:48:48.420Z,23.11
2022-08-17T06:51:27.802Z,23.18
2022-08-17T06:54:06.473Z,23.26
2022-08-17T06:56:54.277Z,23.33
2022-08-17T06:59:53.210Z,23.40
2022-08-17T07:02:52.249Z,23.39
2022-08-17T07:05:21.801Z,23.54
2022-08-17T07:08:04.602Z,23.52
2022-08-17T07:10:42.945Z,23.56
2022-08-17T07:13:43.279Z,23.67
2022-08-17T07:16:41.124Z,23.77
2022-08-17T07:19:10.956Z,23.79
2022-08-17T07:21:51.811Z,23.81
2022-08-17T07:24:33.544Z,23.89
2022-08-17T07:27:11.794Z,23.98
2022-08-17T07:29:48.024Z,24.03
2022-08-17T07:32:20.268Z,24.09
2022-08-17T07:35:00.819Z,24.18
2022-08-17T07:37:28.155Z,24.21
2022-08-17T07:40:14.920Z,24.28
2022-08-17T07:42:46.553Z,24.30
2022-08-17T07:45:35.047Z,24.35
2022-08-17T07:48:20.366Z,24.43
2022-08-17T07:50:49.703Z,24.47
2022-08-17T07:53:25.994Z,24.54
2022-08-17T07:55:53.907Z,24.64
2022-08-17T07:58:23.981Z,24.79
2022-08-17T08:01:08.284Z,24.83
2022-08-17T08:03:42.887Z,24.89
2022-08-17T08:06:23.189Z,25.00
2022-08-17T08:08:54.796Z,25.07
2022-08-17T08:11:32.980Z,25.15
2022-08-17T08:14:29.325Z,25.21
2022-08-17T08:16:59.108Z,25.28
2022-08-17T08:19:28.358Z,25.31
2022-08-17T08:22:04.537Z,25.41
2022-08-17T08:24:52.229Z,25.50
2022-08-17T08:27:27.688Z,25.56
2022-08-17T08:30:18.269Z,25.61
2022-08-17T08:33:21.212Z,25.71
2022-08-17T08:35:53.636Z,25.76
2022-08-17T08:38:53.731Z,25.82
2022-08-17T08:41:24.086Z,25.88
2022-08-17T08:44:03.709Z,25.93
2022-08-17T08:46:39.520Z,26.04
2022-08-17T08:50:01.230Z,26.13
2022-08-17T08:52:31.062Z,26.20
2022-08-17T08:55:10.246Z,26.29
2022-08-17T08:57:45.178Z,26.33
2022-08-17T09:00:21.601Z,26.41
2022-08-17T09:03:06.168Z,26.48
2022-08-17T09:05:45.468Z,26.60
2022-08-17T09:08:40.256Z,26.68
2022-08-17T09:11:28.396Z,26.73
2022-08-17T09:14:21.534Z,26.83
2022-08-17T09:17:00.484Z,26.94
2022-08-17T09:19:53.796Z,27.02
2022-08-17T09:22:33.027Z,27.11
2022-08-17T09:25:13.614Z,27.12
2022-08-17T09:27:57.265Z,27.21
2022-08-17T09:30:43.360Z,27.34
2022-08-17T09:33:15.250Z,27.46
2022-08-17T09:35:48.100Z,27.47
2022-08-17T09:38:41.667Z,27.53
2022-08-17T09:41:49.403Z,27.60
2022-08-17T09:44:30.991Z,27.70
2022-08-17T09:47:14.469Z,27.85
2022-08-17T09:49:49.248Z,27.94
2022-08-17T09:52:21.790Z,28.00
2022-08-17T09:54:53.518Z,28.05
2022-08-17T09:57:32.156Z,28.07
2022-08-17T10:00:16.044Z,28.17
2022-08-17T10:02:53.465Z,28.28
2022-08-17T10:05:39.981Z,28.40
2022-08-17T10:08:22.917Z,28.51
2022-08-17T10:10:56.516Z,28.55
2022-08-17T10:13:53.429Z,28.71
2022-08-17T10:16:44.899Z,28.75
2022-08-17T10:19:15.169Z,28.82
2022-08-17T10:22:14.751Z,28.92
2022-08-17T10:25:22.236Z,29.00
2022-08-17T10:27:56.611Z,29.11
2022-08-17T10:30:28.932Z,29.20
2022-08-17T10:33:06.789Z,29.35
2022-08-17T10:36:10.890Z,29.44
2022-08-17T10:38:59.468Z,29.61
2022-08-17T10:41:30.966Z,29.72
2022-08-17T10:44:38.548Z,29.82
2022-08-17T10:47:11.669Z,29.85
2022-08-17T10:49:47.939Z,29.91
2022-08-17T10:52:41.453Z,29.97
2022-08-17T10:55:17.812Z,30.06
2022-08-17T10:57:50.223Z,30.16
2022-08-17T11:00:28.460Z,30.14
2022-08-17T11:02:57.548Z,30.15
2022-08-17T11:05:50.347Z,30.27
2022-08-17T11:08:33.749Z,30.35
2022-08-17T11:11:35.859Z,30.45
2022-08-17T11:14:18.849Z,30.50
2022-08-17T11:17:23.460Z,30.64
2022-08-17T11:20:21.056Z,30.74
2022-08-17T11:23:03.448Z,30.80
2022-08-17T11:25:40.813Z,30.97
2022-08-17T11:28:22.053Z,31.02
2022-08-17T11:30:53.888Z,31.09
2022-08-17T11:33:30.401Z,31.21
2022-08-17T11:36:20.035Z,31.26
2022-08-17T11:39:19.236Z,31.29
2022-08-17T11:42:05.887Z,31.36
2022-08-17T11:44:53.327Z,31.31
2022-08-17T11:48:23.786Z,31.36
2022-08-17T11:51:18.563Z,31.50
2022-08-17T11:53:45.832Z,31.63
2022-08-17T11:56:31.796Z,31.69
2022-08-17T11:59:00.768Z,31.75
2022-08-17T12:01:29.068Z,31.81
2022-08-17T12:04:25.929Z,31.87
2022-08-17T12:06:56.947Z,31.90
2022-08-17T12:09:29.852Z,31.93
2022-08-17T12:12:14.218Z,31.95
2022-08-17T12:15:09.546Z,31.99
2022-08-17T12:17:40.972Z,32.04
2022-08-17T12:20:38.700Z,32.14
2022-08-17T12:23:24.255Z,32.07
2022-08-17T12:26:05.099Z,32.10
2022-08-17T12:28:36.420Z,32.13
2022-08-17T12:31:07.712Z,32.15
2022-08-17T12:33:39.955Z,32.20
2022-08-17T12:36:08.939Z,32.22
2022-08-17T12:38:38.174Z,32.26
2022-08-17T12:41:26.334Z,32.38
2022-08-17T12:44:14.940Z,32.31
2022-08-17T12:46:54.467Z,32.35
2022-08-17T12:49:29.840Z,32.40
2022-08-17T12:52:05.768Z,32.46
2022-08-17T12:54:42.007Z,32.45
2022-08-17T12:57:14.556Z,32.50
2022-08-17T12:59:53.184Z,32.55
2022-08-17T13:02:31.231Z,32.54
2022-08-17T13:05:01.461Z,32.60
2022-08-17T13:07:36.742Z,32.58
2022-08-17T13:10:04.540Z,32.63
2022-08-17T13:12:35.461Z,32.72
2022-08-17T13:15:03.003Z,32.81
2022-08-17T13:17:34.761Z,32.87
2022-08-17T13:20:06.124Z,32.83
2022-08-17T13:22:33.637Z,32.87
2022-08-17T13:25:07.418Z,32.87
2022-08-17T13:27:34.821Z,32.88
2022-08-17T13:30:11.601Z,32.81
2022-08-17T13:32:46.347Z,32.88
2022-08-17T13:35:39.989Z,32.91
2022-08-17T13:38:14.529Z,32.93
2022-08-17T13:40:43.801Z,32.97
2022-08-17T13:43:11.953Z,32.92
2022-08-17T13:45:50.774Z,32.82
2022-08-17T13:48:29.510Z,32.83
2022-08-17T13:50:56.799Z,32.79
2022-08-17T13:53:26.769Z,32.74
2022-08-17T13:55:58.533Z,32.74
2022-08-17T13:58:32.088Z,32.67
2022-08-17T14:01:35.918Z,32.76
2022-08-17T14:04:10.104Z,32.89
2022-08-17T14:06:52.275Z,32.85
2022-08-17T14:09:24.318Z,32.89
2022-08-17T14:11:54.120Z,32.94
2022-08-17T14:14:23.288Z,32.96
2022-08-17T14:16:51.961Z,33.05
2022-08-17T14:19:24.284Z,32.97
2022-08-17T14:21:52.284Z,33.06
2022-08-17T14:24:26.479Z,33.17
2022-08-17T14:26:54.005Z,33.26
2022-08-17T14:29:23.808Z,33.41
2022-08-17T14:31:54.227Z,33.60
2022-08-17T14:34:24.343Z,33.68
2022-08-17T14:36:52.758Z,33.77
2022-08-17T14:39:20.608Z,33.83
2022-08-17T14:41:48.926Z,33.90
2022-08-17T14:44:16.298Z,34.00
2022-08-17T14:46:44.933Z,34.06
2022-08-17T14:49:13.432Z,34.21
2022-08-17T14:51:43.589Z,34.37
2022-08-17T14:54:33.422Z,34.39
2022-08-17T14:57:22.566Z,34.31
2022-08-17T14:59:54.942Z,34.14
2022-08-17T15:02:31.046Z,33.97
2022-08-17T15:05:03.206Z,33.86
2022-08-17T15:07:31.393Z,33.88
2022-08-17T15:10:01.616Z,33.78
2022-08-17T15:12:34.561Z,33.65
2022-08-17T15:15:06.294Z,33.60
2022-08-17T15:17:44.518Z,33.57
2022-08-17T15:20:22.979Z,33.45
2022-08-17T15:22:50.603Z,33.44
2022-08-17T15:25:19.352Z,33.32
2022-08-17T15:27:47.410Z,33.25
2022-08-17T15:30:15.814Z,33.19
2022-08-17T15:32:50.779Z,33.14
2022-08-17T15:35:26.982Z,33.04
2022-08-17T15:37:54.994Z,32.92
2022-08-17T15:40:22.263Z,32.94
2022-08-17T15:42:51.112Z,33.04
2022-08-17T15:45:23.037Z,33.07
2022-08-17T15:47:52.054Z,33.11
2022-08-17T15:50:19.714Z,33.17
2022-08-17T15:52:47.601Z,33.19
2022-08-17T15:55:15.638Z,33.26
2022-08-17T15:57:43.000Z,33.22
2022-08-17T16:00:11.105Z,33.07
2022-08-17T16:03:45.127Z,33.00
2022-08-17T16:05:31.076Z,32.80
2022-08-17T16:07:59.759Z,32.72
2022-08-17T16:10:35.476Z,32.72
2022-08-17T16:13:04.047Z,32.65
2022-08-17T16:15:32.027Z,32.59
2022-08-17T16:17:59.765Z,32.55
2022-08-17T16:20:27.616Z,32.35
2022-08-17T16:22:55.252Z,32.32
2022-08-17T16:25:38.401Z,32.20
2022-08-17T16:28:16.227Z,32.10
2022-08-17T16:30:43.962Z,32.07
2022-08-17T16:33:11.654Z,32.00
2022-08-17T16:35:39.166Z,31.84
2022-08-17T16:38:07.260Z,31.80
2022-08-17T16:40:36.267Z,31.74
2022-08-17T16:43:09.186Z,31.61
2022-08-17T16:45:40.549Z,31.30
2022-08-17T16:48:09.383Z,31.12
2022-08-17T16:50:37.517Z,30.92
2022-08-17T16:53:10.688Z,30.86
2022-08-17T16:55:38.612Z,30.66
2022-08-17T16:58:06.909Z,30.56
2022-08-17T17:00:35.260Z,30.48
2022-08-17T17:03:19.355Z,30.42
2022-08-17T17:06:24.479Z,30.42
2022-08-17T17:09:07.989Z,30.26
2022-08-17T17:11:48.188Z,30.25
2022-08-17T17:14:29.539Z,30.28
2022-08-17T17:16:57.727Z,30.21
2022-08-17T17:19:37.237Z,30.22
2022-08-17T17:22:14.116Z,30.19
2022-08-17T17:25:12.209Z,30.12
2022-08-17T17:27:58.864Z,30.03
2022-08-17T17:30:58.487Z,29.88
2022-08-17T17:33:37.039Z,29.25
2022-08-17T17:36:25.712Z,28.49
2022-08-17T17:38:59.291Z,28.09
2022-08-17T17:41:32.820Z,27.10
2022-08-17T17:44:12.169Z,26.74
2022-08-17T17:46:43.327Z,26.18
2022-08-17T17:49:14.081Z,25.93
2022-08-17T17:52:08.550Z,25.93
2022-08-17T17:55:09.671Z,25.79
2022-08-17T17:58:00.718Z,25.69
2022-08-17T18:01:01.622Z,25.48
2022-08-17T18:03:50.679Z,25.15
2022-08-17T18:06:33.179Z,25.15
2022-08-17T18:09:19.234Z,25.11
2022-08-17T18:12:02.561Z,24.86
2022-08-17T18:15:00.195Z,24.63
2022-08-17T18:17:29.873Z,24.44
2022-08-17T18:19:57.438Z,24.52
2022-08-17T18:22:25.966Z,24.43
2022-08-17T18:24:57.855Z,24.21
2022-08-17T18:27:34.552Z,24.24
2022-08-17T18:30:26.075Z,23.98
2022-08-17T18:32:53.487Z,23.97
2022-08-17T18:35:22.215Z,23.93
2022-08-17T18:37:52.606Z,23.89
2022-08-17T18:40:20.065Z,23.94
2022-08-17T18:43:03.034Z,23.91
2022-08-17T18:45:33.474Z,23.87
2022-08-17T18:48:01.725Z,24.02
2022-08-17T18:50:39.522Z,24.05
2022-08-17T18:53:26.736Z,24.01
2022-08-17T18:56:26.858Z,23.94
2022-08-17T18:59:01.270Z,23.98
2022-08-17T19:01:52.403Z,24.07
2022-08-17T19:04:35.588Z,24.00
2022-08-17T19:07:23.752Z,23.89
2022-08-17T19:10:14.135Z,23.82
2022-08-17T19:13:24.334Z,23.85
2022-08-17T19:16:15.322Z,23.94
2022-08-17T19:18:48.684Z,23.96
2022-08-17T19:21:25.533Z,23.99
2022-08-17T19:24:19.914Z,23.85
2022-08-17T19:26:59.459Z,23.79
2022-08-17T19:29:39.075Z,23.69
2022-08-17T19:32:08.956Z,23.59
2022-08-17T19:34:38.170Z,23.62
2022-08-17T19:37:25.430Z,23.59
2022-08-17T19:40:24.429Z,23.64
2022-08-17T19:43:12.225Z,23.63
2022-08-17T19:45:45.513Z,23.57
2022-08-17T19:48:35.618Z,23.45
2022-08-17T19:51:38.773Z,23.36
2022-08-17T19:54:20.985Z,23.39
2022-08-17T19:57:06.172Z,23.43
2022-08-17T19:59:49.391Z,23.34
2022-08-17T20:02:22.479Z,23.31
2022-08-17T20:04:50.879Z,23.35
2022-08-17T20:07:22.320Z,23.24
2022-08-17T20:10:37.270Z,23.20
2022-08-17T20:13:09.891Z,23.25
2022-08-17T20:15:41.837Z,23.27
2022-08-17T20:18:24.157Z,23.35
2022-08-17T20:21:02.873Z,23.40
2022-08-17T20:23:38.969Z,23.41
2022-08-17T20:26:38.317Z,23.38
2022-08-17T20:29:37.776Z,23.37
2022-08-17T20:32:18.881Z,23.39
2022-08-17T20:34:47.788Z,23.46
2022-08-17T20:37:15.204Z,23.51
2022-08-17T20:40:04.420Z,23.53
2022-08-17T20:42:33.865Z,23.53
2022-08-17T20:45:26.119Z,23.52
2022-08-17T20:48:30.491Z,23.47
2022-08-17T20:50:56.980Z,23.38
2022-08-17T20:53:54.762Z,23.45
2022-08-17T20:56:43.555Z,23.47
2022-08-17T20:59:25.882Z,23.53
2022-08-17T21:02:18.814Z,23.57
2022-08-17T21:04:56.305Z,23.56
2022-08-17T21:07:23.535Z,23.52
2022-08-17T21:09:51.474Z,23.51
2022-08-17T21:12:50.223Z,23.43
2022-08-17T21:15:39.424Z,23.48
2022-08-17T21:18:12.977Z,23.55
2022-08-17T21:20:49.007Z,23.43
2022-08-17T21:23:37.477Z,23.43
2022-08-17T21:26:30.605Z,23.42
2022-08-17T21:29:29.814Z,23.48
2022-08-17T21:32:01.792Z,23.45
2022-08-17T21:34:38.085Z,23.58
2022-08-17T21:37:20.496Z,23.58
2022-08-17T21:39:54.754Z,23.58
2022-08-17T21:42:31.659Z,23.59
2022-08-17T21:45:29.643Z,23.59
2022-08-17T21:48:21.338Z,23.59
2022-08-17T21:51:12.062Z,23.58
2022-08-17T21:53:42.231Z,23.58
2022-08-17T21:56:11.939Z,23.54
2022-08-17T21:58:48.314Z,23.52
2022-08-17T22:01:27.261Z,23.52
2022-08-17T22:04:25.403Z,23.57
2022-08-17T22:06:57.441Z,23.61
2022-08-17T22:09:32.458Z,23.61
2022-08-17T22:12:11.148Z,23.49
2022-08-17T22:14:53.190Z,23.57
2022-08-17T22:17:34.343Z,23.52
2022-08-17T22:20:10.451Z,23.57
2022-08-17T22:23:19.335Z,23.53
2022-08-17T22:26:02.599Z,23.54
2022-08-17T22:28:49.883Z,23.55
2022-08-17T22:31:26.834Z,23.62
2022-08-17T22:34:00.135Z,23.59
2022-08-17T22:36:45.939Z,23.61
2022-08-17T22:39:13.381Z,23.64
2022-08-17T22:41:57.160Z,23.62
2022-08-17T22:44:34.015Z,23.63
2022-08-17T22:47:11.455Z,23.63
2022-08-17T22:49:57.820Z,23.52
2022-08-17T22:53:00.357Z,23.54
2022-08-17T22:55:49.750Z,23.53
2022-08-17T22:58:38.625Z,23.44
2022-08-17T23:01:35.544Z,23.36
2022-08-17T23:04:06.353Z,23.36
2022-08-17T23:06:35.174Z,23.37
2022-08-17T23:09:05.811Z,23.32
2022-08-17T23:11:50.071Z,23.36
2022-08-17T23:14:20.176Z,23.36
2022-08-17T23:16:50.145Z,23.31
2022-08-17T23:19:20.477Z,23.28
2022-08-17T23:21:49.168Z,23.16
2022-08-17T23:24:29.184Z,23.11
2022-08-17T23:26:58.137Z,23.16
2022-08-17T23:29:29.197Z,23.07
2022-08-17T23:31:59.781Z,23.03
2022-08-17T23:34:28.395Z,23.05
2022-08-17T23:36:55.887Z,23.05
2022-08-17T23:39:24.688Z,23.03
2022-08-17T23:41:57.960Z,23.05
2022-08-17T23:44:26.108Z,22.82
2022-08-17T23:46:54.486Z,22.84
2022-08-17T23:49:21.770Z,22.82
2022-08-17T23:51:49.228Z,22.91
2022-08-17T23:54:21.691Z,22.81
2022-08-17T23:56:49.090Z,22.80
2022-08-17T23:59:19.855Z,22.77
